createdAt,value
2019-03-31T00:02:00.021Z,99.90
2019-03-31T00:04:31.499Z,99.90
2019-03-31T00:07:03.459Z,99.90
2019-03-31T00:09:35.125Z,99.90
2019-03-31T00:12:06.779Z,99.90
2019-03-31T00:14:38.408Z,99.90
2019-03-31T00:17:10.161Z,99.90
2019-03-31T00:19:41.543Z,99.90
2019-03-31T00:22:13.103Z,99.90
2019-03-31T00:24:44.526Z,99.90
2019-03-31T00:27:16.260Z,99.90
2019-03-31T00:29:47.667Z,99.90
2019-03-31T00:32:19.595Z,99.90
2019-03-31T00:34:51.228Z,99.90
2019-03-31T00:37:22.683Z,99.90
2019-03-31T00:39:54.281Z,99.90
2019-03-31T00:42:25.740Z,99.90
2019-03-31T00:44:57.463Z,99.90
2019-03-31T00:47:29.215Z,99.90
2019-03-31T00:50:00.729Z,99.90
2019-03-31T00:52:32.185Z,99.90
2019-03-31T00:55:03.617Z,99.90
2019-03-31T00:57:35.309Z,99.90
2019-03-31T01:00:09.494Z,99.90
2019-03-31T01:02:41.107Z,99.90
2019-03-31T01:05:12.730Z,99.90
2019-03-31T01:07:44.411Z,99.90
2019-03-31T01:10:16.602Z,99.90
2019-03-31T01:12:48.311Z,99.90
2019-03-31T01:15:23.360Z,99.90
2019-03-31T01:17:55.074Z,99.90
2019-03-31T01:20:26.686Z,99.90
2019-03-31T01:22:58.321Z,99.90
2019-03-31T01:25:29.772Z,99.90
2019-03-31T01:28:01.789Z,99.90
2019-03-31T01:30:33.283Z,99.90
2019-03-31T01:33:05.105Z,99.90
2019-03-31T01:35:36.637Z,99.90
2019-03-31T01:38:08.510Z,99.90
2019-03-31T01:40:40.285Z,99.90
2019-03-31T01:43:11.712Z,99.90
2019-03-31T01:45:43.334Z,99.90
2019-03-31T01:48:14.745Z,99.90
2019-03-31T01:50:46.689Z,99.90
2019-03-31T01:53:18.396Z,99.90
2019-03-31T01:55:49.885Z,99.90
2019-03-31T01:58:21.375Z,99.90
2019-03-31T02:00:58.002Z,99.90
2019-03-31T02:03:29.439Z,99.90
2019-03-31T02:06:00.830Z,99.90
2019-03-31T02:08:32.542Z,99.90
2019-03-31T02:11:04.040Z,99.90
2019-03-31T02:13:35.545Z,99.90
2019-03-31T02:16:07.578Z,99.90
2019-03-31T02:18:39.412Z,99.90
2019-03-31T02:21:11.106Z,99.90
2019-03-31T02:23:42.599Z,99.90
2019-03-31T02:26:14.046Z,99.90
2019-03-31T02:28:45.504Z,99.90
2019-03-31T02:31:16.908Z,99.90
2019-03-31T02:33:48.530Z,99.90
2019-03-31T02:36:19.947Z,99.90
2019-03-31T02:38:54.628Z,99.90
2019-03-31T02:41:26.078Z,99.90
2019-03-31T02:43:57.558Z,99.90
2019-03-31T02:46:29.000Z,99.90
2019-03-31T02:49:00.532Z,99.90
2019-03-31T02:51:32.580Z,99.90
2019-03-31T02:54:03.994Z,99.90
2019-03-31T02:56:37.258Z,99.90
2019-03-31T02:59:09.628Z,99.90
2019-03-31T03:01:42.081Z,99.90
2019-03-31T03:04:15.021Z,99.90
2019-03-31T03:06:47.138Z,99.90
2019-03-31T03:09:19.334Z,99.90
2019-03-31T03:11:52.611Z,99.90
2019-03-31T03:14:26.163Z,99.90
2019-03-31T03:16:57.692Z,99.90
2019-03-31T03:19:29.117Z,99.90
2019-03-31T03:22:00.882Z,99.90
2019-03-31T03:24:32.549Z,99.90
2019-03-31T03:27:03.985Z,99.90
2019-03-31T03:29:35.701Z,99.90
2019-03-31T03:32:07.185Z,99.90
2019-03-31T03:34:38.621Z,99.90
2019-03-31T03:37:10.093Z,99.90
2019-03-31T03:39:41.729Z,99.90
2019-03-31T03:42:13.207Z,99.90
2019-03-31T03:44:44.770Z,99.90
2019-03-31T03:47:16.284Z,99.90
2019-03-31T03:49:47.732Z,99.90
2019-03-31T03:52:19.465Z,99.90
2019-03-31T03:54:50.875Z,99.90
2019-03-31T03:57:22.726Z,99.90
2019-03-31T03:59:54.266Z,99.90
2019-03-31T04:02:25.912Z,99.90
2019-03-31T04:04:57.820Z,99.90
2019-03-31T04:07:29.245Z,99.90
2019-03-31T04:10:01.374Z,99.90
2019-03-31T04:12:32.772Z,99.90
2019-03-31T04:15:04.248Z,99.90
2019-03-31T04:17:35.808Z,99.90
2019-03-31T04:20:07.470Z,99.90
2019-03-31T04:22:38.869Z,99.90
2019-03-31T04:25:10.360Z,99.90
2019-03-31T04:27:41.887Z,99.90
2019-03-31T04:30:13.730Z,99.90
2019-03-31T04:32:45.178Z,99.90
2019-03-31T04:35:16.816Z,99.90
2019-03-31T04:37:48.241Z,99.90
2019-03-31T04:40:19.739Z,99.90
2019-03-31T04:42:51.149Z,99.90
2019-03-31T04:45:22.795Z,99.90
2019-03-31T04:47:54.212Z,99.90
2019-03-31T04:50:25.781Z,99.90
2019-03-31T04:52:57.248Z,99.90
2019-03-31T04:55:28.756Z,99.90
2019-03-31T04:58:00.200Z,99.90
2019-03-31T05:00:31.701Z,99.90
2019-03-31T05:03:03.446Z,99.90
2019-03-31T05:05:34.872Z,99.90
2019-03-31T05:08:06.317Z,99.90
2019-03-31T05:10:37.796Z,99.90
2019-03-31T05:13:09.845Z,99.90
2019-03-31T05:15:41.257Z,99.90
2019-03-31T05:18:12.757Z,99.90
2019-03-31T05:20:44.231Z,99.90
2019-03-31T05:23:15.943Z,99.90
2019-03-31T05:25:47.341Z,99.90
2019-03-31T05:28:18.908Z,99.90
2019-03-31T05:30:50.368Z,99.90
2019-03-31T05:33:21.944Z,99.90
2019-03-31T05:35:54.106Z,99.90
2019-03-31T05:38:25.921Z,99.90
2019-03-31T05:40:57.392Z,99.90
2019-03-31T05:43:28.896Z,99.90
2019-03-31T05:46:00.330Z,99.90
2019-03-31T05:48:31.826Z,99.90
2019-03-31T05:51:03.567Z,99.90
2019-03-31T05:53:35.030Z,99.90
2019-03-31T05:56:06.516Z,99.90
2019-03-31T05:58:37.983Z,99.90
2019-03-31T06:01:09.494Z,99.90
2019-03-31T06:03:40.890Z,99.90
2019-03-31T06:06:12.318Z,99.90
2019-03-31T06:08:43.984Z,99.90
2019-03-31T06:11:15.450Z,99.90
2019-03-31T06:13:46.986Z,99.90
2019-03-31T06:16:18.441Z,99.90
2019-03-31T06:18:49.988Z,99.90
2019-03-31T06:21:21.486Z,99.90
2019-03-31T06:23:54.290Z,99.90
2019-03-31T06:26:26.052Z,99.90
2019-03-31T06:28:57.582Z,99.90
2019-03-31T06:31:29.194Z,99.90
2019-03-31T06:34:00.651Z,99.90
2019-03-31T06:36:32.078Z,99.90
2019-03-31T06:39:05.754Z,99.90
2019-03-31T06:41:37.161Z,99.90
2019-03-31T06:44:08.626Z,99.90
2019-03-31T06:46:40.540Z,99.90
2019-03-31T06:49:12.012Z,99.90
2019-03-31T06:51:43.472Z,99.90
2019-03-31T06:54:17.770Z,99.90
2019-03-31T06:56:49.179Z,99.90
2019-03-31T06:59:20.657Z,99.90
2019-03-31T07:01:52.147Z,99.90
2019-03-31T07:04:23.601Z,99.90
2019-03-31T07:06:55.330Z,99.90
2019-03-31T07:09:27.100Z,99.90
2019-03-31T07:11:58.547Z,99.90
2019-03-31T07:14:30.341Z,99.90
2019-03-31T07:17:02.422Z,99.90
2019-03-31T07:19:34.122Z,99.90
2019-03-31T07:22:05.693Z,99.90
2019-03-31T07:24:37.133Z,99.90
2019-03-31T07:27:08.580Z,99.90
2019-03-31T07:29:40.213Z,99.90
2019-03-31T07:32:11.977Z,99.90
2019-03-31T07:34:43.452Z,99.90
2019-03-31T07:37:15.010Z,99.90
2019-03-31T07:39:46.718Z,99.90
2019-03-31T07:42:18.429Z,99.90
2019-03-31T07:44:49.838Z,99.90
2019-03-31T07:47:21.565Z,99.90
2019-03-31T07:49:54.655Z,99.90
2019-03-31T07:52:26.074Z,99.90
2019-03-31T07:54:57.615Z,99.90
2019-03-31T07:57:29.160Z,99.90
2019-03-31T08:00:00.604Z,99.90
2019-03-31T08:02:32.280Z,99.90
2019-03-31T08:05:07.315Z,99.90
2019-03-31T08:07:38.847Z,99.90
2019-03-31T08:10:12.050Z,99.90
2019-03-31T08:12:44.456Z,99.90
2019-03-31T08:15:16.549Z,99.90
2019-03-31T08:17:48.331Z,99.90
2019-03-31T08:20:20.609Z,99.90
2019-03-31T08:22:52.349Z,99.90
2019-03-31T08:25:23.811Z,99.90
2019-03-31T08:27:55.701Z,99.90
2019-03-31T08:30:27.198Z,99.90
2019-03-31T08:32:58.594Z,99.90
2019-03-31T08:35:30.543Z,99.90
2019-03-31T08:38:02.357Z,99.90
2019-03-31T08:40:33.771Z,98.90
2019-03-31T08:43:05.514Z,99.90
2019-03-31T08:45:37.264Z,97.50
2019-03-31T08:48:08.983Z,98.70
2019-03-31T08:50:40.773Z,96.90
2019-03-31T08:53:12.693Z,96.10
2019-03-31T08:55:44.359Z,97.00
2019-03-31T08:58:15.915Z,96.60
2019-03-31T09:00:55.109Z,94.40
2019-03-31T09:03:26.605Z,93.10
2019-03-31T09:06:02.001Z,93.40
2019-03-31T09:11:11.046Z,93.00
2019-03-31T09:13:42.595Z,90.10
2019-03-31T09:16:14.297Z,86.90
2019-03-31T09:18:45.794Z,88.50
2019-03-31T09:21:17.309Z,84.30
2019-03-31T09:23:48.787Z,83.90
2019-03-31T09:26:20.480Z,81.10
2019-03-31T09:28:51.939Z,81.80
2019-03-31T09:31:23.437Z,78.50
2019-03-31T09:33:55.149Z,72.30
2019-03-31T09:36:26.699Z,76.00
2019-03-31T09:38:58.637Z,70.30
2019-03-31T09:41:30.119Z,74.00
2019-03-31T09:44:01.591Z,72.20
2019-03-31T09:46:33.045Z,67.40
2019-03-31T09:49:04.727Z,68.50
2019-03-31T09:51:36.759Z,65.20
2019-03-31T09:54:08.781Z,59.40
2019-03-31T09:56:40.293Z,62.30
2019-03-31T09:59:11.738Z,59.50
2019-03-31T10:01:43.555Z,68.60
2019-03-31T10:04:15.669Z,57.90
2019-03-31T10:06:47.297Z,57.00
2019-03-31T10:09:19.168Z,60.70
2019-03-31T10:11:51.178Z,57.00
2019-03-31T10:14:22.821Z,58.90
2019-03-31T10:16:57.709Z,58.40
2019-03-31T10:19:28.786Z,57.50
2019-03-31T10:22:00.503Z,56.90
2019-03-31T10:24:32.219Z,53.70
2019-03-31T10:27:03.868Z,54.40
2019-03-31T10:29:35.874Z,55.00
2019-03-31T10:32:07.624Z,55.00
2019-03-31T10:34:39.756Z,52.30
2019-03-31T10:37:11.827Z,52.80
2019-03-31T10:39:44.024Z,52.00
2019-03-31T10:42:15.743Z,56.60
2019-03-31T10:44:47.984Z,54.70
2019-03-31T10:47:20.053Z,51.40
2019-03-31T10:49:51.901Z,49.20
2019-03-31T10:52:23.688Z,49.50
2019-03-31T10:54:55.309Z,49.60
2019-03-31T10:57:27.084Z,49.70
2019-03-31T10:59:59.091Z,49.00
2019-03-31T11:02:30.905Z,54.80
2019-03-31T11:05:02.883Z,51.40
2019-03-31T11:07:34.568Z,45.80
2019-03-31T11:10:06.378Z,51.00
2019-03-31T11:12:38.219Z,46.00
2019-03-31T11:15:10.026Z,48.80
2019-03-31T11:17:41.775Z,50.40
2019-03-31T11:20:13.396Z,47.30
2019-03-31T11:22:55.779Z,45.00
2019-03-31T11:25:29.358Z,46.20
2019-03-31T11:28:00.580Z,43.40
2019-03-31T11:30:32.351Z,43.40
2019-03-31T11:33:07.251Z,44.80
2019-03-31T11:35:37.183Z,43.40
2019-03-31T11:38:08.891Z,43.40
2019-03-31T11:40:40.570Z,44.10
2019-03-31T11:43:12.315Z,47.40
2019-03-31T11:45:44.203Z,43.70
2019-03-31T11:48:16.119Z,44.80
2019-03-31T11:50:47.922Z,45.00
2019-03-31T11:53:19.642Z,44.20
2019-03-31T11:55:51.344Z,43.40
2019-03-31T11:58:23.051Z,41.20
2019-03-31T12:00:57.191Z,45.80
2019-03-31T12:03:30.916Z,41.60
2019-03-31T12:06:02.099Z,44.40
2019-03-31T12:08:33.891Z,43.70
2019-03-31T12:11:05.460Z,41.90
2019-03-31T12:13:37.209Z,41.60
2019-03-31T12:16:08.952Z,40.70
2019-03-31T12:18:41.050Z,40.30
2019-03-31T12:21:12.783Z,44.60
2019-03-31T12:23:44.833Z,40.10
2019-03-31T12:26:16.856Z,42.40
2019-03-31T12:28:48.847Z,43.50
2019-03-31T12:31:20.897Z,43.30
2019-03-31T12:33:52.324Z,44.30
2019-03-31T12:36:24.436Z,43.70
2019-03-31T12:38:56.242Z,43.30
2019-03-31T12:41:28.013Z,43.00
2019-03-31T12:43:59.784Z,44.80
2019-03-31T12:46:31.339Z,43.80
2019-03-31T12:49:02.963Z,45.10
2019-03-31T12:51:34.455Z,45.30
2019-03-31T12:54:06.111Z,45.00
2019-03-31T12:56:37.864Z,44.90
2019-03-31T12:59:09.263Z,45.00
2019-03-31T13:01:40.718Z,43.80
2019-03-31T13:04:12.476Z,44.50
2019-03-31T13:06:44.178Z,42.60
2019-03-31T13:09:15.663Z,43.70
2019-03-31T13:11:50.310Z,45.20
2019-03-31T13:14:20.435Z,44.40
2019-03-31T13:16:52.143Z,45.50
2019-03-31T13:19:24.070Z,43.70
2019-03-31T13:21:58.550Z,44.30
2019-03-31T13:24:30.363Z,42.90
2019-03-31T13:27:01.932Z,43.30
2019-03-31T13:29:33.327Z,43.30
2019-03-31T13:32:05.134Z,44.20
2019-03-31T13:34:37.069Z,44.50
2019-03-31T13:37:09.250Z,44.40
2019-03-31T13:39:41.290Z,44.40
2019-03-31T13:42:13.004Z,44.60
2019-03-31T13:44:44.522Z,44.40
2019-03-31T13:47:16.208Z,44.10
2019-03-31T13:49:47.859Z,45.00
2019-03-31T13:52:19.966Z,44.80
2019-03-31T13:54:51.461Z,44.60
2019-03-31T13:57:23.831Z,44.80
2019-03-31T13:59:56.038Z,46.10
2019-03-31T14:02:27.513Z,45.20
2019-03-31T14:04:59.146Z,45.90
2019-03-31T14:07:31.215Z,44.80
2019-03-31T14:10:02.933Z,46.00
2019-03-31T14:12:34.492Z,45.30
2019-03-31T14:15:18.519Z,44.80
2019-03-31T14:17:39.951Z,44.60
2019-03-31T14:20:11.775Z,45.00
2019-03-31T14:22:43.258Z,42.80
2019-03-31T14:25:15.095Z,43.80
2019-03-31T14:27:46.542Z,43.60
2019-03-31T14:30:18.212Z,43.00
2019-03-31T14:32:49.926Z,42.90
2019-03-31T14:35:21.984Z,44.20
2019-03-31T14:37:55.260Z,43.00
2019-03-31T14:40:26.958Z,43.10
2019-03-31T14:42:59.232Z,45.60
2019-03-31T14:45:35.997Z,44.20
2019-03-31T14:48:07.996Z,43.50
2019-03-31T14:50:42.491Z,44.10
2019-03-31T14:53:14.237Z,43.80
2019-03-31T14:55:46.000Z,44.00
2019-03-31T14:58:17.565Z,44.00
2019-03-31T15:00:49.139Z,43.60
2019-03-31T15:03:20.603Z,44.10
2019-03-31T15:05:52.143Z,44.80
2019-03-31T15:08:23.872Z,44.10
2019-03-31T15:10:55.393Z,43.40
2019-03-31T15:13:27.024Z,43.10
2019-03-31T15:15:58.778Z,43.60
2019-03-31T15:18:30.348Z,43.20
2019-03-31T15:21:02.154Z,42.50
2019-03-31T15:23:33.628Z,42.50
2019-03-31T15:26:05.330Z,42.50
2019-03-31T15:28:37.156Z,43.60
2019-03-31T15:31:08.957Z,43.90
2019-03-31T15:33:40.508Z,44.50
2019-03-31T15:36:12.204Z,44.40
2019-03-31T15:38:43.652Z,44.10
2019-03-31T15:41:21.239Z,44.10
2019-03-31T15:43:48.652Z,44.10
2019-03-31T15:46:20.173Z,44.20
2019-03-31T15:48:51.674Z,44.10
2019-03-31T15:51:23.357Z,44.50
2019-03-31T15:53:55.561Z,44.50
2019-03-31T15:56:27.108Z,43.70
2019-03-31T15:58:58.922Z,44.50
2019-03-31T16:01:30.476Z,44.50
2019-03-31T16:04:02.414Z,45.20
2019-03-31T16:06:33.941Z,45.40
2019-03-31T16:09:06.053Z,44.70
2019-03-31T16:11:36.712Z,44.20
2019-03-31T16:14:07.719Z,43.80
2019-03-31T16:16:38.377Z,44.30
2019-03-31T16:19:09.581Z,44.30
2019-03-31T16:21:43.991Z,44.70
2019-03-31T16:24:13.043Z,43.70
2019-03-31T16:26:43.754Z,43.70
2019-03-31T16:29:14.423Z,42.90
2019-03-31T16:31:45.420Z,42.70
2019-03-31T16:34:16.360Z,43.50
2019-03-31T16:36:47.197Z,42.50
2019-03-31T16:39:17.939Z,43.20
2019-03-31T16:41:48.618Z,42.90
2019-03-31T16:44:19.365Z,42.60
2019-03-31T16:46:50.374Z,43.40
2019-03-31T16:49:21.362Z,43.40
2019-03-31T16:51:52.008Z,43.50
2019-03-31T16:54:22.690Z,43.70
2019-03-31T16:56:54.900Z,44.60
2019-03-31T16:59:25.569Z,44.50
2019-03-31T17:01:56.699Z,43.90
2019-03-31T17:04:27.507Z,43.70
2019-03-31T17:06:58.445Z,44.60
2019-03-31T17:09:29.093Z,44.50
2019-03-31T17:11:59.949Z,44.90
2019-03-31T17:14:30.657Z,44.30
2019-03-31T17:17:01.651Z,45.00
2019-03-31T17:19:32.397Z,45.20
2019-03-31T17:22:03.099Z,45.10
2019-03-31T17:24:36.702Z,45.10
2019-03-31T17:27:07.805Z,45.70
2019-03-31T17:29:38.511Z,45.70
2019-03-31T17:32:09.679Z,46.20
2019-03-31T17:34:40.644Z,46.90
2019-03-31T17:37:11.866Z,47.70
2019-03-31T17:39:42.572Z,48.90
2019-03-31T17:42:13.294Z,50.00
2019-03-31T17:44:44.079Z,50.40
2019-03-31T17:47:14.723Z,51.30
2019-03-31T17:49:45.579Z,51.70
2019-03-31T17:52:16.575Z,52.10
2019-03-31T17:54:47.248Z,52.50
2019-03-31T17:57:17.920Z,52.80
2019-03-31T17:59:48.689Z,53.80
2019-03-31T18:02:19.699Z,54.40
2019-03-31T18:04:50.747Z,54.70
2019-03-31T18:07:21.794Z,55.90
2019-03-31T18:09:54.265Z,56.50
2019-03-31T18:12:25.193Z,57.70
2019-03-31T18:14:55.802Z,58.70
2019-03-31T18:17:26.640Z,59.00
2019-03-31T18:19:57.639Z,60.00
2019-03-31T18:22:28.717Z,60.80
2019-03-31T18:25:00.364Z,61.40
2019-03-31T18:27:31.133Z,61.80
2019-03-31T18:30:02.060Z,62.40
2019-03-31T18:32:32.803Z,63.40
2019-03-31T18:35:04.163Z,64.20
2019-03-31T18:37:34.866Z,64.70
2019-03-31T18:40:06.963Z,65.50
2019-03-31T18:42:37.807Z,66.30
2019-03-31T18:45:09.261Z,66.40
2019-03-31T18:47:39.966Z,67.00
2019-03-31T18:50:11.039Z,67.90
2019-03-31T18:52:41.884Z,68.60
2019-03-31T18:55:49.915Z,69.30
2019-03-31T18:58:32.686Z,69.80
2019-03-31T19:01:25.919Z,71.10
2019-03-31T19:04:14.447Z,72.30
2019-03-31T19:07:07.011Z,73.40
2019-03-31T19:10:23.745Z,74.40
2019-03-31T19:12:50.791Z,75.50
2019-03-31T19:15:41.068Z,76.20
2019-03-31T19:18:29.248Z,77.90
2019-03-31T19:21:24.372Z,79.40
2019-03-31T19:24:05.833Z,80.20
2019-03-31T19:26:57.847Z,81.40
2019-03-31T19:29:44.701Z,83.50
2019-03-31T19:32:49.732Z,84.70
2019-03-31T19:35:42.074Z,86.50
2019-03-31T19:38:44.097Z,88.00
2019-03-31T19:41:31.377Z,90.00
2019-03-31T19:44:10.470Z,90.30
2019-03-31T19:46:50.325Z,90.60
2019-03-31T19:49:48.607Z,91.20
2019-03-31T19:52:34.615Z,92.00
2019-03-31T19:55:30.361Z,92.80
2019-03-31T19:58:18.740Z,92.90
2019-03-31T20:01:08.261Z,94.00
2019-03-31T20:03:46.899Z,94.60
2019-03-31T20:06:36.975Z,95.00
2019-03-31T20:09:33.857Z,95.70
2019-03-31T20:12:11.266Z,96.30
2019-03-31T20:14:59.247Z,96.40
2019-03-31T20:17:35.856Z,97.00
2019-03-31T20:20:19.913Z,97.70
2019-03-31T20:23:05.140Z,98.40
2019-03-31T20:25:53.502Z,99.60
2019-03-31T20:28:46.069Z,99.90
2019-03-31T20:31:34.510Z,99.90
2019-03-31T20:34:30.497Z,99.90
2019-03-31T20:37:18.710Z,99.90
2019-03-31T20:40:14.374Z,99.90
2019-03-31T20:42:57.348Z,99.90
2019-03-31T20:45:28.426Z,99.90
2019-03-31T20:47:59.327Z,99.90
2019-03-31T20:50:30.059Z,99.90
2019-03-31T20:53:01.215Z,99.90
2019-03-31T20:55:31.927Z,99.90
2019-03-31T20:58:03.290Z,99.90
2019-03-31T21:00:34.115Z,99.90
2019-03-31T21:03:05.091Z,99.90
2019-03-31T21:05:35.968Z,99.90
2019-03-31T21:08:07.647Z,99.90
2019-03-31T21:10:38.599Z,99.90
2019-03-31T21:13:09.588Z,99.90
2019-03-31T21:15:40.376Z,99.90
2019-03-31T21:18:11.125Z,99.90
2019-03-31T21:20:41.891Z,99.90
2019-03-31T21:23:13.201Z,99.90
2019-03-31T21:25:43.902Z,99.90
2019-03-31T21:28:14.906Z,99.90
2019-03-31T21:30:45.604Z,99.90
2019-03-31T21:33:16.317Z,99.90
2019-03-31T21:35:48.633Z,99.90
2019-03-31T21:38:19.533Z,99.90
2019-03-31T21:40:50.200Z,99.90
2019-03-31T21:43:20.888Z,99.90
2019-03-31T21:45:51.721Z,99.90
2019-03-31T21:48:22.400Z,99.90
2019-03-31T21:50:53.068Z,99.90
2019-03-31T21:53:24.035Z,99.90
2019-03-31T21:55:55.514Z,99.90
2019-03-31T21:58:26.222Z,99.90
2019-03-31T22:00:59.538Z,99.90
2019-03-31T22:03:30.242Z,99.90
2019-03-31T22:06:01.154Z,99.90
2019-03-31T22:08:31.894Z,99.90
2019-03-31T22:11:03.240Z,99.90
2019-03-31T22:13:33.988Z,99.90
2019-03-31T22:16:05.227Z,99.90
2019-03-31T22:18:36.165Z,99.90
2019-03-31T22:21:07.018Z,99.90
2019-03-31T22:23:38.027Z,99.90
2019-03-31T22:26:09.318Z,99.90
2019-03-31T22:28:40.032Z,99.90
2019-03-31T22:31:10.672Z,99.90
2019-03-31T22:33:41.353Z,99.90
2019-03-31T22:36:25.215Z,99.90
2019-03-31T22:38:56.259Z,99.90
2019-03-31T22:41:27.210Z,99.90
2019-03-31T22:43:58.211Z,99.90
2019-03-31T22:46:29.049Z,99.90
2019-03-31T22:48:59.763Z,99.90
2019-03-31T22:51:30.348Z,99.90
2019-03-31T22:54:01.466Z,99.90
2019-03-31T22:56:32.110Z,99.90
2019-03-31T22:59:03.322Z,99.90
2019-03-31T23:01:34.141Z,99.90
2019-03-31T23:04:05.236Z,99.90
2019-03-31T23:06:36.210Z,99.90
2019-03-31T23:09:08.709Z,99.90
2019-03-31T23:11:39.380Z,99.90
2019-03-31T23:14:10.349Z,99.90
2019-03-31T23:16:41.227Z,99.90
2019-03-31T23:19:12.360Z,99.90
2019-03-31T23:21:43.272Z,99.90
2019-03-31T23:24:14.209Z,99.90
2019-03-31T23:26:45.155Z,99.90
2019-03-31T23:29:16.103Z,99.90
2019-03-31T23:31:47.012Z,99.90
2019-03-31T23:34:17.662Z,99.90
2019-03-31T23:36:48.361Z,99.90
2019-03-31T23:39:19.315Z,99.90
2019-03-31T23:41:50.257Z,99.90
2019-03-31T23:44:21.150Z,99.90
2019-03-31T23:46:52.127Z,99.90
2019-03-31T23:49:23.069Z,99.90
2019-03-31T23:51:55.399Z,99.90
2019-03-31T23:54:26.288Z,99.90
2019-03-31T23:56:57.285Z,99.90
2019-03-31T23:59:28.113Z,99.90
